• Join FlightAware (Why Join?)
  • Login
  • US Flag 
09:39AM EDT


 

Airport Tracker/Info


-or-


 

Live Flight TrackerFlight Track Log ✈ N621MM ✈ 10-Jul-2013 ✈ KRST - KLOT

Flight Track Log - Related Links

Times and Time Zones

All times are in EDT time to prevent confusion due to time zone crossing. See the N621MM flight status page for this flight to view local times or setup timezone preferences in your user account.

Time Position Orientation Groundspeed Altitude Reporting Facility
EDT Latitude Longitude Course Direction KTS MPH feet Rate Location/Type
01:48PM 43.9236 -92.4564 132° Southeast 130 150 4,600  Level Minneapolis Center
01:49PM 43.8958 -92.4172 135° Southeast 132 152 5,500 840 Climbing Minneapolis Center
01:50PM 43.8661 -92.3822 140° Southeast 140 161 6,400 780 Climbing Minneapolis Center
01:51PM 43.6945 -92.1750 133° Southeast  Level FlightAware Approximate
01:51PM 43.8322 -92.3317 133° Southeast 145 167 7,400  Level Minneapolis Center
01:52PM 43.6592 -92.1220 133° Southeast  Level FlightAware Approximate
01:52PM 43.8036 -92.2894 133° Southeast 141 162 8,000  Level Minneapolis Center
01:53PM 43.7736 -92.2453 133° Southeast 155 178 8,500 480 Climbing Minneapolis Center
01:54PM 43.7392 -92.1958 134° Southeast 167 192 9,000 240 Climbing Minneapolis Center
01:55PM 43.7064 -92.1494 134° Southeast 171 197 9,000  Level Minneapolis Center
01:56PM 43.6653 -92.0894 133° Southeast 197 227 9,100  Climbing Minneapolis Center
01:57PM 43.6272 -92.0342 134° Southeast 203 234 9,000  Descending Minneapolis Center
01:58PM 43.5858 -91.9758 134° Southeast 199 229 9,100  Climbing Minneapolis Center
01:59PM 43.5439 -91.9156 134° Southeast 202 232 9,000  Descending Minneapolis Center
02:00PM 43.5050 -91.8617 135° Southeast 201 231 9,100  Climbing Minneapolis Center
02:01PM 43.4631 -91.8017 134° Southeast 203 234 9,100  Level Minneapolis Center
02:02PM 43.4250 -91.7469 134° Southeast 201 231 9,100  Level Minneapolis Center
02:04PM 43.3844 -91.6889 134° Southeast 197 227 9,100  Level Minneapolis Center
02:05PM 43.3461 -91.6356 135° Southeast 199 229 9,100  Level Minneapolis Center
02:06PM 43.3075 -91.5800 134° Southeast 201 231 9,100  Level Minneapolis Center
02:07PM 43.2700 -91.5256 133° Southeast 200 230 9,100  Level Minneapolis Center
02:08PM 43.2442 -91.4603 118° Southeast 199 229 9,100  Level Minneapolis Center
02:09PM 43.2056 -91.3697 120° Southeast 197 227 9,100  Level Minneapolis Center
02:10PM 43.1878 -91.3322 123° Southeast 200 230 9,100  Level Chicago Center
02:11PM 43.1589 -91.2683 122° Southeast 199 229 9,100  Level Chicago Center
02:12PM 43.1314 -91.2036 120° Southeast 198 228 9,100  Level Chicago Center
02:13PM 43.0981 -91.1258 120° Southeast 198 228 9,100  Level Chicago Center
02:14PM 43.0694 -91.0636 122° Southeast 199 229 9,100  Level Chicago Center
02:15PM 43.0414 -90.9989 121° Southeast 199 229 9,100  Level Chicago Center
02:16PM 43.0131 -90.9333 121° Southeast 198 228 9,100  Level Chicago Center
02:17PM 42.9844 -90.8703 122° Southeast 197 227 9,100  Level Chicago Center
02:18PM 42.9508 -90.7922 120° Southeast 199 229 9,100  Level Chicago Center
02:19PM 42.9217 -90.7281 122° Southeast 200 230 9,100  Level Chicago Center
02:20PM 42.8928 -90.6631 121° Southeast 201 231 9,100  Level Chicago Center
02:21PM 42.8639 -90.5994 122° Southeast 200 230 9,100  Level Chicago Center
02:22PM 42.8358 -90.5353 121° Southeast 200 230 9,100  Level Chicago Center
02:23PM 42.8017 -90.4594 122° Southeast 198 228 9,100  Level Chicago Center
02:24PM 42.7717 -90.3950 122° Southeast 201 231 9,100  Level Chicago Center
02:25PM 42.7431 -90.3308 121° Southeast 200 230 9,100  Level Chicago Center
02:26PM 42.7142 -90.2675 122° Southeast 199 229 9,100  Level Chicago Center
02:27PM 42.6856 -90.2022 121° Southeast 201 231 9,100  Level Chicago Center
02:28PM 42.6514 -90.1256 121° Southeast 202 232 9,100  Level Chicago Center
02:29PM 42.6206 -90.0614 123° Southeast 203 234 9,100  Level Chicago Center
02:30PM 42.5919 -89.9981 122° Southeast 200 230 9,100  Level Chicago Center
02:31PM 42.5625 -89.9333 122° Southeast 203 234 9,100  Level Chicago Center
02:32PM 42.5283 -89.8597 122° Southeast 198 228 9,100  Level Chicago Center
02:33PM 42.4997 -89.7956 121° Southeast 199 229 9,100  Level Chicago Center
02:34PM 42.4697 -89.7317 122° Southeast 200 230 9,100  Level Chicago Center
02:35PM 42.4408 -89.6681 122° Southeast 199 229 9,100  Level Chicago Center
02:36PM 42.4114 -89.6044 122° Southeast 200 230 9,100  Level Chicago Center
02:38PM 42.3775 -89.5311 122° Southeast 198 228 9,100  Level Chicago Center
02:39PM 42.3483 -89.4678 122° Southeast 198 228 9,100  Level Chicago Center
02:40PM 42.3183 -89.4061 123° Southeast 197 227 9,100  Level Chicago Center
02:41PM 42.2892 -89.3417 121° Southeast 198 228 9,100 -120 Level Chicago Center
02:42PM 42.2586 -89.2786 123° Southeast 199 229 8,900 -360 Descending Chicago Center
02:43PM 42.2103 -89.2169 137° Southeast 208 239 8,400 -480 Descending Chicago Center
02:44PM 42.1669 -89.1628 137° Southeast 213 245 7,900 -480 Descending Chicago Center
02:45PM 42.1244 -89.1036 134° Southeast 212 244 7,400 -540 Descending Chicago Center
02:46PM 42.0850 -89.0472 133° Southeast 207 238 6,900 -480 Descending Chicago Center
02:47PM 42.0478 -88.9981 136° Southeast 202 232 6,500 -540 Descending Chicago Center
02:48PM 42.0017 -88.9347 134° Southeast 199 229 5,900 -540 Descending Chicago Center
02:49PM 41.9714 -88.8742 124° Southeast 197 227 5,400 -420 Descending Chicago Center
02:50PM 41.9442 -88.8117 120° Southeast 197 227 5,100 -180 Descending Chicago Center
02:51PM 41.9164 -88.7572 124° Southeast 189 217 5,100  Level Chicago Center
02:52PM 41.8903 -88.7006 122° Southeast 183 211 5,100 -300 Level Chicago Center
02:53PM 41.8578 -88.6306 122° Southeast 183 211 4,500 -540 Descending Chicago Center
02:54PM 41.8300 -88.5678 121° Southeast 190 219 4,100 -240 Descending Chicago Center
02:55PM 41.8017 -88.5089 123° Southeast 191 220 4,100 -60 Level Chicago Center
02:56PM 41.7767 -88.4533 121° Southeast 184 212 4,000 -300 Descending Chicago Center
02:57PM 41.7506 -88.3978 122° Southeast 180 207 3,600 -420 Descending Chicago Center
02:59PM 41.7000 -88.3000 125° Southeast 185 213 3,000 -300 Descending Chicago TRACON
02:59PM 41.6889 -88.2717 118° Southeast 184 212 3,000  Level Chicago Center
03:00PM 41.6631 -88.2172 122° Southeast 180 207 3,000 -360 Level Chicago Center
03:01PM 41.6372 -88.1625 122° Southeast 177 204 2,300 -600 Descending Chicago Center
03:02PM 41.6000 -88.1308 148° Southeast 175 201 1,800 -480 Descending Chicago Center
03:03PM 41.5689 -88.1153 159° South 147 169 1,400 -480 Descending Chicago Center
03:04PM 41.5928 -88.1008 24° Northeast 115 132 900 -300 Descending Chicago Center
03:05PM 41.6136 -88.1019 358° North 108 124 800 -120 Descending Chicago Center